sensor_id;sensor_type;location;lat;lon;timestamp;pressure;altitude;pressure_sealevel;temperature;humidity
48810;BME280;40070;47.322;18.784;2023-06-14T00:00:19;1000.10;;;14.81;66.89
48810;BME280;40070;47.322;18.784;2023-06-14T00:02:22;1000.11;;;14.65;67.29
48810;BME280;40070;47.322;18.784;2023-06-14T00:04:24;1000.10;;;14.73;67.03
48810;BME280;40070;47.322;18.784;2023-06-14T00:06:28;1000.12;;;14.72;67.53
48810;BME280;40070;47.322;18.784;2023-06-14T00:08:31;1000.11;;;14.74;67.11
48810;BME280;40070;47.322;18.784;2023-06-14T00:10:33;1000.10;;;14.89;67.10
48810;BME280;40070;47.322;18.784;2023-06-14T00:12:36;1000.14;;;14.78;67.25
48810;BME280;40070;47.322;18.784;2023-06-14T00:14:39;1000.13;;;14.81;67.38
48810;BME280;40070;47.322;18.784;2023-06-14T00:16:41;1000.13;;;14.78;67.60
48810;BME280;40070;47.322;18.784;2023-06-14T00:18:44;1000.15;;;14.74;67.58
48810;BME280;40070;47.322;18.784;2023-06-14T00:20:46;1000.16;;;14.66;67.79
48810;BME280;40070;47.322;18.784;2023-06-14T00:22:49;1000.21;;;14.66;67.67
48810;BME280;40070;47.322;18.784;2023-06-14T00:24:51;1000.23;;;14.92;67.39
48810;BME280;40070;47.322;18.784;2023-06-14T00:26:54;1000.28;;;14.95;67.53
48810;BME280;40070;47.322;18.784;2023-06-14T00:28:56;1000.30;;;14.72;67.35
48810;BME280;40070;47.322;18.784;2023-06-14T00:30:59;1000.35;;;14.66;68.14
48810;BME280;40070;47.322;18.784;2023-06-14T00:33:01;1000.37;;;14.84;67.71
48810;BME280;40070;47.322;18.784;2023-06-14T00:35:04;1000.35;;;14.79;67.37
48810;BME280;40070;47.322;18.784;2023-06-14T00:37:06;1000.31;;;14.96;66.92
48810;BME280;40070;47.322;18.784;2023-06-14T00:39:09;1000.33;;;14.88;67.22
48810;BME280;40070;47.322;18.784;2023-06-14T00:41:12;1000.30;;;14.92;67.07
48810;BME280;40070;47.322;18.784;2023-06-14T00:43:14;1000.31;;;14.76;67.73
48810;BME280;40070;47.322;18.784;2023-06-14T00:45:17;1000.30;;;14.87;67.18
48810;BME280;40070;47.322;18.784;2023-06-14T00:47:19;1000.29;;;14.93;67.18
48810;BME280;40070;47.322;18.784;2023-06-14T00:49:22;1000.30;;;14.78;67.25
48810;BME280;40070;47.322;18.784;2023-06-14T00:51:24;1000.30;;;14.81;67.02
48810;BME280;40070;47.322;18.784;2023-06-14T00:53:27;1000.30;;;14.58;67.64
48810;BME280;40070;47.322;18.784;2023-06-14T00:55:30;1000.29;;;14.77;67.03
48810;BME280;40070;47.322;18.784;2023-06-14T00:57:32;1000.31;;;14.75;67.00
48810;BME280;40070;47.322;18.784;2023-06-14T00:59:36;1000.27;;;14.84;66.83
48810;BME280;40070;47.322;18.784;2023-06-14T01:01:40;1000.25;;;14.86;66.20
48810;BME280;40070;47.322;18.784;2023-06-14T01:03:42;1000.26;;;14.93;66.36
48810;BME280;40070;47.322;18.784;2023-06-14T01:05:45;1000.23;;;14.87;66.32
48810;BME280;40070;47.322;18.784;2023-06-14T01:12:21;1000.26;;;14.55;67.55
48810;BME280;40070;47.322;18.784;2023-06-14T01:14:26;1000.24;;;14.56;67.61
48810;BME280;40070;47.322;18.784;2023-06-14T01:16:29;1000.25;;;14.53;67.69
48810;BME280;40070;47.322;18.784;2023-06-14T01:18:32;1000.20;;;14.53;68.07
48810;BME280;40070;47.322;18.784;2023-06-14T01:20:35;1000.21;;;14.67;67.67
48810;BME280;40070;47.322;18.784;2023-06-14T01:22:42;1000.21;;;14.62;68.05
48810;BME280;40070;47.322;18.784;2023-06-14T01:24:45;1000.18;;;14.68;68.00
48810;BME280;40070;47.322;18.784;2023-06-14T01:26:48;1000.19;;;14.69;67.94
48810;BME280;40070;47.322;18.784;2023-06-14T01:28:50;1000.16;;;14.60;67.98
48810;BME280;40070;47.322;18.784;2023-06-14T01:30:53;1000.19;;;14.72;67.65
48810;BME280;40070;47.322;18.784;2023-06-14T01:32:56;1000.19;;;14.66;67.88
48810;BME280;40070;47.322;18.784;2023-06-14T01:34:59;1000.21;;;14.69;67.89
48810;BME280;40070;47.322;18.784;2023-06-14T01:37:02;1000.21;;;14.75;67.90
48810;BME280;40070;47.322;18.784;2023-06-14T01:39:05;1000.21;;;14.70;68.08
48810;BME280;40070;47.322;18.784;2023-06-14T01:41:07;1000.23;;;14.70;67.91
48810;BME280;40070;47.322;18.784;2023-06-14T01:43:11;1000.27;;;14.53;68.45
48810;BME280;40070;47.322;18.784;2023-06-14T01:45:15;1000.29;;;14.26;69.43
48810;BME280;40070;47.322;18.784;2023-06-14T01:47:18;1000.32;;;14.18;69.75
48810;BME280;40070;47.322;18.784;2023-06-14T01:49:21;1000.30;;;14.48;68.77
48810;BME280;40070;47.322;18.784;2023-06-14T01:51:24;1000.26;;;14.70;68.20
48810;BME280;40070;47.322;18.784;2023-06-14T01:53:26;1000.31;;;14.71;68.16
48810;BME280;40070;47.322;18.784;2023-06-14T01:55:29;1000.30;;;14.47;69.40
48810;BME280;40070;47.322;18.784;2023-06-14T01:57:31;1000.31;;;14.51;69.10
48810;BME280;40070;47.322;18.784;2023-06-14T01:59:34;1000.25;;;14.65;68.68
48810;BME280;40070;47.322;18.784;2023-06-14T02:01:36;1000.27;;;14.48;69.08
48810;BME280;40070;47.322;18.784;2023-06-14T02:03:39;1000.29;;;14.40;69.26
48810;BME280;40070;47.322;18.784;2023-06-14T02:05:41;1000.29;;;14.49;69.24
48810;BME280;40070;47.322;18.784;2023-06-14T02:07:44;1000.30;;;14.48;68.92
48810;BME280;40070;47.322;18.784;2023-06-14T02:09:46;1000.29;;;14.36;69.14
48810;BME280;40070;47.322;18.784;2023-06-14T02:11:49;1000.29;;;14.40;69.11
48810;BME280;40070;47.322;18.784;2023-06-14T02:13:51;1000.32;;;14.36;68.98
48810;BME280;40070;47.322;18.784;2023-06-14T02:15:54;1000.29;;;14.37;68.98
48810;BME280;40070;47.322;18.784;2023-06-14T02:17:56;1000.30;;;14.54;68.49
48810;BME280;40070;47.322;18.784;2023-06-14T02:19:59;1000.29;;;14.33;69.14
48810;BME280;40070;47.322;18.784;2023-06-14T02:22:01;1000.27;;;14.33;69.00
48810;BME280;40070;47.322;18.784;2023-06-14T02:24:04;1000.31;;;14.31;68.80
48810;BME280;40070;47.322;18.784;2023-06-14T02:26:07;1000.32;;;14.25;68.83
48810;BME280;40070;47.322;18.784;2023-06-14T02:28:09;1000.35;;;14.30;68.78
48810;BME280;40070;47.322;18.784;2023-06-14T02:30:12;1000.36;;;14.18;69.39
48810;BME280;40070;47.322;18.784;2023-06-14T02:32:14;1000.33;;;14.04;69.98
48810;BME280;40070;47.322;18.784;2023-06-14T02:34:17;1000.35;;;14.16;70.06
48810;BME280;40070;47.322;18.784;2023-06-14T02:36:19;1000.36;;;14.30;69.28
48810;BME280;40070;47.322;18.784;2023-06-14T02:38:22;1000.37;;;14.25;69.43
48810;BME280;40070;47.322;18.784;2023-06-14T02:40:24;1000.36;;;14.31;69.50
48810;BME280;40070;47.322;18.784;2023-06-14T02:42:27;1000.39;;;14.41;69.19
48810;BME280;40070;47.322;18.784;2023-06-14T02:44:29;1000.36;;;14.24;69.93
48810;BME280;40070;47.322;18.784;2023-06-14T02:46:32;1000.33;;;14.37;69.73
48810;BME280;40070;47.322;18.784;2023-06-14T02:48:34;1000.35;;;14.24;70.22
48810;BME280;40070;47.322;18.784;2023-06-14T02:50:37;1000.39;;;14.34;69.86
48810;BME280;40070;47.322;18.784;2023-06-14T02:52:39;1000.38;;;14.58;68.85
48810;BME280;40070;47.322;18.784;2023-06-14T02:54:42;1000.41;;;14.44;69.03
48810;BME280;40070;47.322;18.784;2023-06-14T02:56:44;1000.38;;;14.40;69.09
48810;BME280;40070;47.322;18.784;2023-06-14T02:58:47;1000.42;;;14.33;69.60
48810;BME280;40070;47.322;18.784;2023-06-14T03:00:49;1000.43;;;14.52;68.79
48810;BME280;40070;47.322;18.784;2023-06-14T03:02:52;1000.40;;;14.33;69.32
48810;BME280;40070;47.322;18.784;2023-06-14T03:04:54;1000.38;;;14.23;69.72
48810;BME280;40070;47.322;18.784;2023-06-14T03:06:57;1000.39;;;14.26;69.87
48810;BME280;40070;47.322;18.784;2023-06-14T03:09:00;1000.37;;;14.01;70.46
48810;BME280;40070;47.322;18.784;2023-06-14T03:11:02;1000.35;;;14.04;70.81
48810;BME280;40070;47.322;18.784;2023-06-14T03:13:05;1000.37;;;14.26;70.21
48810;BME280;40070;47.322;18.784;2023-06-14T03:15:08;1000.42;;;14.32;69.83
48810;BME280;40070;47.322;18.784;2023-06-14T03:17:10;1000.44;;;14.28;69.98
48810;BME280;40070;47.322;18.784;2023-06-14T03:19:13;1000.47;;;14.32;69.99
48810;BME280;40070;47.322;18.784;2023-06-14T03:21:15;1000.43;;;14.32;70.22
48810;BME280;40070;47.322;18.784;2023-06-14T03:23:18;1000.44;;;14.30;70.42
48810;BME280;40070;47.322;18.784;2023-06-14T03:25:20;1000.47;;;14.55;69.79
48810;BME280;40070;47.322;18.784;2023-06-14T03:27:23;1000.47;;;14.44;70.20
48810;BME280;40070;47.322;18.784;2023-06-14T03:29:25;1000.44;;;14.61;69.82
48810;BME280;40070;47.322;18.784;2023-06-14T03:31:29;1000.47;;;14.53;70.22
48810;BME280;40070;47.322;18.784;2023-06-14T03:33:31;1000.44;;;14.49;70.50
48810;BME280;40070;47.322;18.784;2023-06-14T03:35:34;1000.44;;;14.66;69.89
48810;BME280;40070;47.322;18.784;2023-06-14T03:37:36;1000.47;;;14.77;69.57
48810;BME280;40070;47.322;18.784;2023-06-14T03:39:39;1000.47;;;14.69;69.87
48810;BME280;40070;47.322;18.784;2023-06-14T03:41:41;1000.56;;;14.66;70.08
48810;BME280;40070;47.322;18.784;2023-06-14T03:43:44;1000.54;;;14.90;69.79
48810;BME280;40070;47.322;18.784;2023-06-14T03:45:47;1000.57;;;15.03;69.44
48810;BME280;40070;47.322;18.784;2023-06-14T03:47:49;1000.64;;;14.97;69.89
48810;BME280;40070;47.322;18.784;2023-06-14T03:49:52;1000.64;;;14.81;70.75
48810;BME280;40070;47.322;18.784;2023-06-14T03:51:54;1000.62;;;14.95;70.38
48810;BME280;40070;47.322;18.784;2023-06-14T03:53:57;1000.65;;;15.07;70.28
48810;BME280;40070;47.322;18.784;2023-06-14T03:55:59;1000.62;;;15.21;70.19
48810;BME280;40070;47.322;18.784;2023-06-14T03:58:01;1000.62;;;15.34;69.86
48810;BME280;40070;47.322;18.784;2023-06-14T04:00:04;1000.62;;;15.18;70.29
48810;BME280;40070;47.322;18.784;2023-06-14T04:02:07;1000.63;;;15.17;70.37
48810;BME280;40070;47.322;18.784;2023-06-14T04:04:09;1000.63;;;15.20;70.31
48810;BME280;40070;47.322;18.784;2023-06-14T04:06:12;1000.67;;;15.26;70.26
48810;BME280;40070;47.322;18.784;2023-06-14T04:08:15;1000.71;;;15.51;69.57
48810;BME280;40070;47.322;18.784;2023-06-14T04:10:18;1000.71;;;15.20;70.55
48810;BME280;40070;47.322;18.784;2023-06-14T04:12:20;1000.72;;;15.07;71.53
48810;BME280;40070;47.322;18.784;2023-06-14T04:14:23;1000.76;;;15.46;70.62
48810;BME280;40070;47.322;18.784;2023-06-14T04:16:26;1000.75;;;15.47;70.84
48810;BME280;40070;47.322;18.784;2023-06-14T04:18:35;1000.74;;;15.73;69.99
48810;BME280;40070;47.322;18.784;2023-06-14T04:20:37;1000.66;;;15.81;69.63
48810;BME280;40070;47.322;18.784;2023-06-14T04:22:40;1000.74;;;15.41;70.89
48810;BME280;40070;47.322;18.784;2023-06-14T04:24:42;1000.69;;;15.78;70.35
48810;BME280;40070;47.322;18.784;2023-06-14T04:26:45;1000.76;;;15.51;70.76
48810;BME280;40070;47.322;18.784;2023-06-14T04:28:47;1000.73;;;15.81;70.25
48810;BME280;40070;47.322;18.784;2023-06-14T04:30:50;1000.75;;;15.44;71.15
48810;BME280;40070;47.322;18.784;2023-06-14T04:32:52;1000.81;;;15.50;71.35
48810;BME280;40070;47.322;18.784;2023-06-14T04:34:57;1000.79;;;15.67;71.53
48810;BME280;40070;47.322;18.784;2023-06-14T04:37:00;1000.79;;;15.84;70.71
48810;BME280;40070;47.322;18.784;2023-06-14T04:39:03;1000.80;;;16.07;70.36
48810;BME280;40070;47.322;18.784;2023-06-14T04:41:06;1000.80;;;16.14;70.00
48810;BME280;40070;47.322;18.784;2023-06-14T04:43:08;1000.77;;;16.50;68.38
48810;BME280;40070;47.322;18.784;2023-06-14T04:45:11;1000.82;;;16.44;68.45
48810;BME280;40070;47.322;18.784;2023-06-14T04:47:13;1000.81;;;16.33;69.53
48810;BME280;40070;47.322;18.784;2023-06-14T04:49:16;1000.80;;;16.46;68.83
48810;BME280;40070;47.322;18.784;2023-06-14T04:51:18;1000.82;;;16.48;68.88
48810;BME280;40070;47.322;18.784;2023-06-14T04:53:21;1000.83;;;16.50;69.08
48810;BME280;40070;47.322;18.784;2023-06-14T04:55:24;1000.83;;;16.62;68.64
48810;BME280;40070;47.322;18.784;2023-06-14T04:57:26;1000.81;;;16.44;68.68
48810;BME280;40070;47.322;18.784;2023-06-14T04:59:28;1000.81;;;16.59;68.31
48810;BME280;40070;47.322;18.784;2023-06-14T05:01:31;1000.84;;;16.55;68.57
48810;BME280;40070;47.322;18.784;2023-06-14T05:03:34;1000.87;;;16.76;67.92
48810;BME280;40070;47.322;18.784;2023-06-14T05:05:40;1000.88;;;16.80;67.59
48810;BME280;40070;47.322;18.784;2023-06-14T05:07:43;1000.90;;;16.89;67.47
48810;BME280;40070;47.322;18.784;2023-06-14T05:09:45;1000.89;;;17.02;67.89
48810;BME280;40070;47.322;18.784;2023-06-14T05:11:48;1000.86;;;17.01;66.71
48810;BME280;40070;47.322;18.784;2023-06-14T05:13:50;1000.88;;;17.00;66.25
48810;BME280;40070;47.322;18.784;2023-06-14T05:15:53;1000.91;;;17.02;66.07
48810;BME280;40070;47.322;18.784;2023-06-14T05:17:55;1000.88;;;16.98;66.30
48810;BME280;40070;47.322;18.784;2023-06-14T05:19:58;1000.89;;;16.93;66.42
48810;BME280;40070;47.322;18.784;2023-06-14T05:22:00;1000.91;;;17.04;66.14
48810;BME280;40070;47.322;18.784;2023-06-14T05:24:03;1000.97;;;16.96;66.86
48810;BME280;40070;47.322;18.784;2023-06-14T05:26:05;1001.01;;;17.04;66.24
48810;BME280;40070;47.322;18.784;2023-06-14T05:28:08;1001.03;;;17.34;65.39
48810;BME280;40070;47.322;18.784;2023-06-14T05:30:11;1001.00;;;17.48;64.76
48810;BME280;40070;47.322;18.784;2023-06-14T05:32:13;1000.98;;;17.55;65.17
48810;BME280;40070;47.322;18.784;2023-06-14T05:34:16;1000.96;;;17.81;64.45
48810;BME280;40070;47.322;18.784;2023-06-14T05:36:19;1001.06;;;17.69;64.45
48810;BME280;40070;47.322;18.784;2023-06-14T05:38:21;1001.03;;;17.88;63.89
48810;BME280;40070;47.322;18.784;2023-06-14T05:40:24;1001.00;;;17.84;63.83
48810;BME280;40070;47.322;18.784;2023-06-14T05:42:26;1001.04;;;18.04;63.48
48810;BME280;40070;47.322;18.784;2023-06-14T05:44:29;1001.06;;;18.13;63.79
48810;BME280;40070;47.322;18.784;2023-06-14T05:46:31;1001.03;;;18.06;63.09
48810;BME280;40070;47.322;18.784;2023-06-14T05:48:34;1001.03;;;18.19;62.76
48810;BME280;40070;47.322;18.784;2023-06-14T05:50:36;1001.01;;;18.40;62.70
48810;BME280;40070;47.322;18.784;2023-06-14T05:52:39;1001.00;;;18.62;61.92
48810;BME280;40070;47.322;18.784;2023-06-14T05:54:41;1000.99;;;18.64;61.89
48810;BME280;40070;47.322;18.784;2023-06-14T05:56:44;1000.98;;;18.35;62.52
48810;BME280;40070;47.322;18.784;2023-06-14T05:58:46;1000.99;;;18.63;62.26
48810;BME280;40070;47.322;18.784;2023-06-14T06:00:49;1000.97;;;19.01;61.73
48810;BME280;40070;47.322;18.784;2023-06-14T06:02:51;1000.99;;;18.91;61.69
48810;BME280;40070;47.322;18.784;2023-06-14T06:04:54;1001.03;;;18.84;61.25
48810;BME280;40070;47.322;18.784;2023-06-14T06:06:56;1001.01;;;18.71;62.09
48810;BME280;40070;47.322;18.784;2023-06-14T06:08:59;1001.06;;;18.88;61.73
48810;BME280;40070;47.322;18.784;2023-06-14T06:11:01;1001.03;;;19.08;61.61
48810;BME280;40070;47.322;18.784;2023-06-14T06:13:04;1001.01;;;18.99;61.74
48810;BME280;40070;47.322;18.784;2023-06-14T06:15:07;1001.02;;;18.88;61.53
48810;BME280;40070;47.322;18.784;2023-06-14T06:17:09;1001.04;;;19.03;60.90
48810;BME280;40070;47.322;18.784;2023-06-14T06:19:12;1001.01;;;18.98;62.02
48810;BME280;40070;47.322;18.784;2023-06-14T06:21:14;1001.03;;;19.17;60.17
48810;BME280;40070;47.322;18.784;2023-06-14T06:23:17;1001.00;;;19.01;60.88
48810;BME280;40070;47.322;18.784;2023-06-14T06:25:19;1000.97;;;19.20;61.12
48810;BME280;40070;47.322;18.784;2023-06-14T06:27:22;1000.96;;;19.42;59.72
48810;BME280;40070;47.322;18.784;2023-06-14T06:29:24;1001.03;;;19.20;59.84
48810;BME280;40070;47.322;18.784;2023-06-14T06:31:27;1001.08;;;19.34;60.00
48810;BME280;40070;47.322;18.784;2023-06-14T06:33:29;1001.06;;;19.61;58.86
48810;BME280;40070;47.322;18.784;2023-06-14T06:35:32;1001.08;;;19.49;58.77
48810;BME280;40070;47.322;18.784;2023-06-14T06:37:36;1001.06;;;19.35;58.75
48810;BME280;40070;47.322;18.784;2023-06-14T06:39:39;1001.05;;;19.21;59.62
48810;BME280;40070;47.322;18.784;2023-06-14T06:41:41;1001.14;;;19.73;58.47
48810;BME280;40070;47.322;18.784;2023-06-14T06:43:44;1001.13;;;19.61;58.47
48810;BME280;40070;47.322;18.784;2023-06-14T06:45:46;1001.13;;;19.65;58.60
48810;BME280;40070;47.322;18.784;2023-06-14T06:47:49;1001.18;;;19.63;58.95
48810;BME280;40070;47.322;18.784;2023-06-14T06:49:51;1001.16;;;19.45;59.17
48810;BME280;40070;47.322;18.784;2023-06-14T06:52:03;1001.18;;;19.67;58.31
48810;BME280;40070;47.322;18.784;2023-06-14T06:54:06;1001.21;;;19.44;59.19
48810;BME280;40070;47.322;18.784;2023-06-14T06:56:09;1001.24;;;19.74;58.81
48810;BME280;40070;47.322;18.784;2023-06-14T06:58:12;1001.22;;;19.80;57.91
48810;BME280;40070;47.322;18.784;2023-06-14T07:00:14;1001.18;;;19.87;57.65
48810;BME280;40070;47.322;18.784;2023-06-14T07:02:17;1001.22;;;19.68;58.78
48810;BME280;40070;47.322;18.784;2023-06-14T07:04:20;1001.16;;;19.80;57.84
48810;BME280;40070;47.322;18.784;2023-06-14T07:06:22;1001.17;;;19.50;58.77
48810;BME280;40070;47.322;18.784;2023-06-14T07:08:25;1001.15;;;19.71;57.76
48810;BME280;40070;47.322;18.784;2023-06-14T07:10:27;1001.16;;;19.72;57.30
48810;BME280;40070;47.322;18.784;2023-06-14T07:12:31;1001.18;;;19.75;58.26
48810;BME280;40070;47.322;18.784;2023-06-14T07:14:33;1001.22;;;19.70;57.77
48810;BME280;40070;47.322;18.784;2023-06-14T07:16:36;1001.20;;;19.87;57.09
48810;BME280;40070;47.322;18.784;2023-06-14T07:18:38;1001.16;;;20.13;56.80
48810;BME280;40070;47.322;18.784;2023-06-14T07:20:41;1001.16;;;20.13;56.08
48810;BME280;40070;47.322;18.784;2023-06-14T07:22:43;1001.13;;;20.32;57.13
48810;BME280;40070;47.322;18.784;2023-06-14T07:24:45;1001.12;;;20.45;55.56
48810;BME280;40070;47.322;18.784;2023-06-14T07:26:48;1001.09;;;20.49;55.05
48810;BME280;40070;47.322;18.784;2023-06-14T07:28:51;1001.10;;;20.51;55.07
48810;BME280;40070;47.322;18.784;2023-06-14T07:30:53;1001.12;;;20.68;55.19
48810;BME280;40070;47.322;18.784;2023-06-14T07:32:56;1001.10;;;20.84;54.66
48810;BME280;40070;47.322;18.784;2023-06-14T07:34:58;1001.12;;;21.19;54.19
48810;BME280;40070;47.322;18.784;2023-06-14T07:37:01;1001.10;;;21.35;51.71
48810;BME280;40070;47.322;18.784;2023-06-14T07:39:04;1001.13;;;21.38;51.60
48810;BME280;40070;47.322;18.784;2023-06-14T07:41:06;1001.11;;;21.57;51.13
48810;BME280;40070;47.322;18.784;2023-06-14T07:43:09;1001.15;;;21.88;51.23
48810;BME280;40070;47.322;18.784;2023-06-14T07:45:13;1001.20;;;21.76;50.87
48810;BME280;40070;47.322;18.784;2023-06-14T07:47:15;1001.27;;;21.75;51.38
48810;BME280;40070;47.322;18.784;2023-06-14T07:49:18;1001.27;;;21.34;50.52
48810;BME280;40070;47.322;18.784;2023-06-14T07:51:20;1001.28;;;21.55;51.48
48810;BME280;40070;47.322;18.784;2023-06-14T07:53:23;1001.29;;;21.61;50.03
48810;BME280;40070;47.322;18.784;2023-06-14T07:55:25;1001.32;;;21.34;50.60
48810;BME280;40070;47.322;18.784;2023-06-14T07:57:28;1001.30;;;21.37;50.63
48810;BME280;40070;47.322;18.784;2023-06-14T07:59:30;1001.35;;;21.38;51.18
48810;BME280;40070;47.322;18.784;2023-06-14T08:01:33;1001.33;;;21.36;50.51
48810;BME280;40070;47.322;18.784;2023-06-14T08:03:35;1001.31;;;21.48;50.29
48810;BME280;40070;47.322;18.784;2023-06-14T08:05:38;1001.33;;;20.99;49.71
48810;BME280;40070;47.322;18.784;2023-06-14T08:07:40;1001.36;;;21.19;50.32
48810;BME280;40070;47.322;18.784;2023-06-14T08:09:43;1001.34;;;21.33;49.54
48810;BME280;40070;47.322;18.784;2023-06-14T08:11:46;1001.32;;;21.22;49.78
48810;BME280;40070;47.322;18.784;2023-06-14T08:13:48;1001.34;;;21.35;49.91
48810;BME280;40070;47.322;18.784;2023-06-14T08:15:51;1001.34;;;21.41;49.32
48810;BME280;40070;47.322;18.784;2023-06-14T08:17:53;1001.34;;;21.46;50.51
48810;BME280;40070;47.322;18.784;2023-06-14T08:19:56;1001.35;;;21.53;48.93
48810;BME280;40070;47.322;18.784;2023-06-14T08:21:58;1001.36;;;21.99;48.94
48810;BME280;40070;47.322;18.784;2023-06-14T08:24:01;1001.35;;;21.95;49.37
48810;BME280;40070;47.322;18.784;2023-06-14T08:26:04;1001.41;;;21.59;49.00
48810;BME280;40070;47.322;18.784;2023-06-14T08:28:06;1001.43;;;21.85;49.18
48810;BME280;40070;47.322;18.784;2023-06-14T08:30:09;1001.42;;;21.86;48.39
48810;BME280;40070;47.322;18.784;2023-06-14T08:32:12;1001.45;;;21.89;48.10
48810;BME280;40070;47.322;18.784;2023-06-14T08:34:14;1001.49;;;21.78;50.29
48810;BME280;40070;47.322;18.784;2023-06-14T08:36:17;1001.49;;;21.86;49.48
48810;BME280;40070;47.322;18.784;2023-06-14T08:38:19;1001.55;;;21.88;49.75
48810;BME280;40070;47.322;18.784;2023-06-14T08:40:22;1001.56;;;21.46;48.82
48810;BME280;40070;47.322;18.784;2023-06-14T08:42:25;1001.61;;;21.52;49.71
48810;BME280;40070;47.322;18.784;2023-06-14T08:44:28;1001.63;;;21.16;49.63
48810;BME280;40070;47.322;18.784;2023-06-14T08:46:30;1001.62;;;21.39;49.65
48810;BME280;40070;47.322;18.784;2023-06-14T08:48:34;1001.68;;;21.33;49.77
48810;BME280;40070;47.322;18.784;2023-06-14T08:50:37;1001.66;;;21.48;51.26
48810;BME280;40070;47.322;18.784;2023-06-14T08:52:42;1001.68;;;21.33;50.03
48810;BME280;40070;47.322;18.784;2023-06-14T08:54:47;1001.69;;;21.64;50.39
48810;BME280;40070;47.322;18.784;2023-06-14T08:56:50;1001.70;;;21.54;50.33
48810;BME280;40070;47.322;18.784;2023-06-14T08:58:53;1001.73;;;21.77;50.86
48810;BME280;40070;47.322;18.784;2023-06-14T09:00:56;1001.74;;;21.85;50.61
48810;BME280;40070;47.322;18.784;2023-06-14T09:02:59;1001.78;;;21.80;52.13
48810;BME280;40070;47.322;18.784;2023-06-14T09:05:01;1001.77;;;21.78;51.68
48810;BME280;40070;47.322;18.784;2023-06-14T09:07:04;1001.79;;;21.96;51.31
48810;BME280;40070;47.322;18.784;2023-06-14T09:09:06;1001.76;;;22.12;50.76
48810;BME280;40070;47.322;18.784;2023-06-14T09:11:12;1001.71;;;22.45;50.08
48810;BME280;40070;47.322;18.784;2023-06-14T09:13:15;1001.71;;;22.29;48.95
48810;BME280;40070;47.322;18.784;2023-06-14T09:15:18;1001.73;;;22.29;48.77
48810;BME280;40070;47.322;18.784;2023-06-14T09:17:21;1001.71;;;22.06;50.60
48810;BME280;40070;47.322;18.784;2023-06-14T09:19:25;1001.69;;;22.16;51.40
48810;BME280;40070;47.322;18.784;2023-06-14T09:21:29;1001.64;;;22.43;49.08
48810;BME280;40070;47.322;18.784;2023-06-14T09:23:40;1001.60;;;22.83;49.22
48810;BME280;40070;47.322;18.784;2023-06-14T09:25:45;1001.62;;;23.54;46.45
48810;BME280;40070;47.322;18.784;2023-06-14T09:27:48;1001.57;;;23.47;46.27
48810;BME280;40070;47.322;18.784;2023-06-14T09:29:51;1001.60;;;23.46;46.27
48810;BME280;40070;47.322;18.784;2023-06-14T09:31:55;1001.60;;;23.32;47.08
48810;BME280;40070;47.322;18.784;2023-06-14T09:33:58;1001.53;;;23.22;49.32
48810;BME280;40070;47.322;18.784;2023-06-14T09:36:00;1001.51;;;23.03;47.27
48810;BME280;40070;47.322;18.784;2023-06-14T09:38:03;1001.50;;;23.03;47.01
48810;BME280;40070;47.322;18.784;2023-06-14T09:40:06;1001.49;;;22.94;48.48
48810;BME280;40070;47.322;18.784;2023-06-14T09:42:18;1001.48;;;22.99;48.54
48810;BME280;40070;47.322;18.784;2023-06-14T09:44:20;1001.45;;;23.15;47.98
48810;BME280;40070;47.322;18.784;2023-06-14T09:46:23;1001.49;;;23.67;45.48
48810;BME280;40070;47.322;18.784;2023-06-14T09:48:26;1001.51;;;24.31;45.29
48810;BME280;40070;47.322;18.784;2023-06-14T09:50:29;1001.45;;;24.49;43.53
48810;BME280;40070;47.322;18.784;2023-06-14T09:52:31;1001.48;;;24.15;45.00
48810;BME280;40070;47.322;18.784;2023-06-14T09:54:34;1001.36;;;24.57;44.40
48810;BME280;40070;47.322;18.784;2023-06-14T09:56:41;1001.40;;;24.33;45.41
48810;BME280;40070;47.322;18.784;2023-06-14T09:58:43;1001.44;;;24.24;44.93
48810;BME280;40070;47.322;18.784;2023-06-14T10:00:46;1001.45;;;24.31;45.34
48810;BME280;40070;47.322;18.784;2023-06-14T10:02:51;1001.42;;;24.57;44.73
48810;BME280;40070;47.322;18.784;2023-06-14T10:05:07;1001.42;;;25.15;43.08
48810;BME280;40070;47.322;18.784;2023-06-14T10:07:10;1001.42;;;25.10;43.43
48810;BME280;40070;47.322;18.784;2023-06-14T10:09:12;1001.39;;;25.38;42.27
48810;BME280;40070;47.322;18.784;2023-06-14T10:11:16;1001.40;;;25.00;41.83
48810;BME280;40070;47.322;18.784;2023-06-14T10:13:19;1001.38;;;25.26;42.58
48810;BME280;40070;47.322;18.784;2023-06-14T10:15:30;1001.38;;;25.00;40.52
48810;BME280;40070;47.322;18.784;2023-06-14T10:17:37;1001.37;;;25.30;42.03
48810;BME280;40070;47.322;18.784;2023-06-14T10:24:17;1001.37;;;25.76;39.75
48810;BME280;40070;47.322;18.784;2023-06-14T10:26:20;1001.36;;;25.85;39.32
48810;BME280;40070;47.322;18.784;2023-06-14T10:28:23;1001.36;;;25.72;39.32
48810;BME280;40070;47.322;18.784;2023-06-14T10:30:26;1001.34;;;25.74;37.57
48810;BME280;40070;47.322;18.784;2023-06-14T10:32:28;1001.37;;;26.15;36.59
48810;BME280;40070;47.322;18.784;2023-06-14T10:34:31;1001.38;;;26.21;37.01
48810;BME280;40070;47.322;18.784;2023-06-14T10:36:33;1001.32;;;26.09;38.47
48810;BME280;40070;47.322;18.784;2023-06-14T10:38:36;1001.26;;;25.94;37.23
48810;BME280;40070;47.322;18.784;2023-06-14T10:40:39;1001.22;;;26.18;35.63
48810;BME280;40070;47.322;18.784;2023-06-14T10:42:50;1001.20;;;26.61;36.17
48810;BME280;40070;47.322;18.784;2023-06-14T10:44:54;1001.17;;;26.38;34.39
48810;BME280;40070;47.322;18.784;2023-06-14T10:47:00;1001.19;;;25.70;35.82
48810;BME280;40070;47.322;18.784;2023-06-14T10:49:03;1001.19;;;25.68;34.16
48810;BME280;40070;47.322;18.784;2023-06-14T10:51:05;1001.13;;;26.37;35.92
48810;BME280;40070;47.322;18.784;2023-06-14T10:53:23;1001.10;;;26.27;33.24
48810;BME280;40070;47.322;18.784;2023-06-14T10:55:25;1001.09;;;26.76;34.40
48810;BME280;40070;47.322;18.784;2023-06-14T10:57:30;1001.04;;;26.92;32.27
48810;BME280;40070;47.322;18.784;2023-06-14T10:59:32;1001.12;;;27.23;33.97